Time;durP1;ratioP1;P1;durP2;ratioP2;P2;SDS_P1;SDS_P2;PMS_P1;PMS_P2;Temp;Humidity;BMP_temperature;BMP_pressure;BME280_temperature;BME280_humidity;BME280_pressure;Samples;Min_cycle;Max_cycle;Signal;HPM_P1;HPM_P2
2021/12/06 00:00:49;;;;;;;71.97;29.10;;;;;;;-0.81;100.00;99307.47;4081718;29;20286;-81
2021/12/06 00:03:22;;;;;;;79.50;31.47;;;;;;;-0.81;100.00;99319.69;4102482;29;21455;-83
2021/12/06 00:05:49;;;;;;;78.37;31.60;;;;;;;-0.82;100.00;99310.16;4072547;29;20298;-82
2021/12/06 00:08:15;;;;;;;79.60;32.47;;;;;;;-0.84;100.00;99310.28;4080873;29;20239;-81
2021/12/06 00:10:42;;;;;;;74.07;32.07;;;;;;;-0.80;100.00;99327.41;4091600;29;21526;-81
2021/12/06 00:13:10;;;;;;;70.77;29.10;;;;;;;-0.71;100.00;99333.81;4083544;29;21611;-80
2021/12/06 00:15:37;;;;;;;74.27;30.83;;;;;;;-0.76;100.00;99328.06;4080706;29;21200;-80
2021/12/06 00:18:03;;;;;;;73.70;30.13;;;;;;;-0.75;100.00;99324.50;4084181;29;22828;-82
2021/12/06 00:20:30;;;;;;;66.93;30.13;;;;;;;-0.73;100.00;99326.06;4083804;29;22212;-82
2021/12/06 00:22:56;;;;;;;74.23;30.93;;;;;;;-0.67;100.00;99327.47;4104292;29;21544;-82
2021/12/06 00:25:23;;;;;;;74.50;30.47;;;;;;;-0.67;100.00;99325.69;4090570;29;20233;-85
2021/12/06 00:27:50;;;;;;;78.90;30.23;;;;;;;-0.78;100.00;99329.94;4086586;29;20353;-81
2021/12/06 00:30:17;;;;;;;72.03;29.77;;;;;;;-0.73;100.00;99328.69;4100135;29;21874;-81
2021/12/06 00:32:45;;;;;;;72.63;29.43;;;;;;;-0.71;100.00;99331.22;4088653;29;21293;-83
2021/12/06 00:35:18;;;;;;;68.93;29.77;;;;;;;-0.78;100.00;99329.94;4083247;29;20635;-80
2021/12/06 00:37:56;;;;;;;72.37;30.37;;;;;;;-0.70;100.00;99325.06;4081751;29;20318;-86
2021/12/06 00:40:24;;;;;;;79.07;30.30;;;;;;;-0.72;100.00;99330.38;4093710;29;20310;-87
2021/12/06 00:42:51;;;;;;;79.80;32.10;;;;;;;-0.70;100.00;99332.91;4101775;29;21596;-77
2021/12/06 00:45:18;;;;;;;79.83;32.07;;;;;;;-0.91;100.00;99341.19;4080869;29;21299;-83
2021/12/06 00:47:46;;;;;;;76.13;30.57;;;;;;;-0.95;100.00;99342.31;4102555;29;20262;-81
2021/12/06 00:50:15;;;;;;;87.90;30.93;;;;;;;-0.90;100.00;99342.84;4079480;29;20229;-84
2021/12/06 00:52:42;;;;;;;75.87;31.23;;;;;;;-0.85;100.00;99346.00;4094989;29;20245;-81
2021/12/06 00:55:09;;;;;;;78.30;30.53;;;;;;;-0.83;100.00;99350.28;4088504;29;20668;-80
2021/12/06 00:57:38;;;;;;;85.60;31.97;;;;;;;-0.77;100.00;99342.03;4102289;29;21166;-76
2021/12/06 01:00:15;;;;;;;76.90;31.03;;;;;;;-0.73;100.00;99348.75;4089614;29;20639;-78
2021/12/06 01:02:41;;;;;;;78.73;31.07;;;;;;;-0.74;100.00;99352.31;4066942;29;21615;-80
2021/12/06 01:05:09;;;;;;;76.00;31.13;;;;;;;-0.76;100.00;99354.19;4091408;29;20233;-81
2021/12/06 01:07:36;;;;;;;79.73;30.83;;;;;;;-0.73;100.00;99349.56;4097365;29;20540;-80
2021/12/06 01:10:06;;;;;;;75.07;29.43;;;;;;;-0.78;100.00;99337.78;4084528;29;20241;-78
2021/12/06 01:12:32;;;;;;;78.90;30.20;;;;;;;-0.73;100.00;99338.31;4081731;29;20265;-81
2021/12/06 01:14:59;;;;;;;81.47;31.33;;;;;;;-0.82;100.00;99318.88;4090355;29;20297;-80
2021/12/06 01:17:26;;;;;;;79.37;30.00;;;;;;;-0.82;100.00;99328.44;4094677;29;24473;-83
2021/12/06 01:19:52;;;;;;;73.00;28.90;;;;;;;-0.91;100.00;99333.34;4079743;29;20245;-79
2021/12/06 01:22:31;;;;;;;87.73;30.87;;;;;;;-0.87;100.00;99340.06;4089027;29;20317;-80
2021/12/06 01:25:03;;;;;;;72.77;29.67;;;;;;;-0.91;100.00;99338.56;4085293;29;20538;-83
2021/12/06 01:27:44;;;;;;;83.47;30.83;;;;;;;-0.86;100.00;99339.09;4106764;29;20326;-80
2021/12/06 01:33:34;;;;;;;73.93;29.67;;;;;;;-1.08;100.00;99333.59;4063246;29;21870;-79
2021/12/06 01:41:36;;;;;;;73.57;28.77;;;;;;;-1.03;100.00;99341.13;4080906;29;20248;-81
2021/12/06 01:44:10;;;;;;;76.53;28.77;;;;;;;-1.02;100.00;99348.88;4117428;29;20246;-80
2021/12/06 01:46:43;;;;;;;81.03;30.33;;;;;;;-0.97;100.00;99357.25;4085721;29;22136;-82
2021/12/06 01:49:13;;;;;;;84.90;29.33;;;;;;;-0.92;100.00;99363.00;4068808;29;22947;-79
2021/12/06 01:51:41;;;;;;;84.30;29.20;;;;;;;-0.92;100.00;99365.59;4088650;29;21818;-81
2021/12/06 01:54:09;;;;;;;80.60;28.50;;;;;;;-0.87;100.00;99376.63;4080466;29;20925;-81
2021/12/06 01:56:36;;;;;;;86.47;35.60;;;;;;;-0.80;100.00;99379.66;4058908;29;20441;-80
2021/12/06 01:59:03;;;;;;;83.17;29.87;;;;;;;-0.73;100.00;99377.47;4089493;29;21272;-80
2021/12/06 02:01:29;;;;;;;81.70;29.43;;;;;;;-0.69;100.00;99378.97;4112178;29;20326;-83
2021/12/06 02:03:56;;;;;;;78.80;29.23;;;;;;;-0.63;100.00;99381.19;4111372;29;22629;-80
2021/12/06 02:06:23;;;;;;;77.33;27.70;;;;;;;-0.58;100.00;99383.50;4085748;29;20240;-82
2021/12/06 02:08:50;;;;;;;72.87;27.70;;;;;;;-0.59;100.00;99371.38;4080552;29;20284;-80
2021/12/06 02:11:17;;;;;;;66.37;27.00;;;;;;;-0.58;100.00;99370.44;4082777;29;20249;-79
2021/12/06 02:13:54;;;;;;;75.93;27.60;;;;;;;-0.60;100.00;99373.16;4081431;29;20310;-80
2021/12/06 02:16:29;;;;;;;72.87;28.23;;;;;;;-0.68;100.00;99367.56;4069568;29;20232;-80
2021/12/06 02:19:02;;;;;;;74.67;27.57;;;;;;;-0.73;100.00;99369.66;4081473;29;26540;-81
2021/12/06 02:21:32;;;;;;;69.27;26.77;;;;;;;-0.65;100.00;99377.84;4086038;29;20250;-84
2021/12/06 02:24:03;;;;;;;69.80;25.77;;;;;;;-0.78;100.00;99371.72;4077289;29;20430;-81
2021/12/06 02:26:30;;;;;;;61.57;25.30;;;;;;;-0.86;100.00;99369.63;4075652;29;20268;-81
2021/12/06 02:28:56;;;;;;;69.43;26.57;;;;;;;-0.76;100.00;99377.69;4067878;29;20298;-80
2021/12/06 02:31:25;;;;;;;69.43;26.10;;;;;;;-0.70;100.00;99379.91;4076026;29;20237;-78
2021/12/06 02:33:53;;;;;;;64.77;26.23;;;;;;;-0.70;100.00;99380.75;4073205;29;20403;-79
2021/12/06 02:36:21;;;;;;;71.07;29.10;;;;;;;-0.67;100.00;99379.72;4088614;29;21111;-78
2021/12/06 02:38:48;;;;;;;67.50;26.80;;;;;;;-0.63;100.00;99375.97;4079006;29;20233;-78
2021/12/06 02:41:15;;;;;;;64.83;26.13;;;;;;;-0.68;100.00;99378.03;4080769;29;20752;-80
2021/12/06 02:43:42;;;;;;;62.83;25.73;;;;;;;-0.75;100.00;99377.59;4088545;29;21333;-77
2021/12/06 02:46:08;;;;;;;62.73;26.40;;;;;;;-0.90;100.00;99378.56;4081825;29;20309;-79
2021/12/06 02:48:35;;;;;;;69.37;25.83;;;;;;;-0.88;100.00;99372.31;4083594;29;20273;-78
2021/12/06 02:51:04;;;;;;;67.50;25.27;;;;;;;-0.81;100.00;99374.53;4083442;29;20407;-80
2021/12/06 02:53:33;;;;;;;69.13;26.20;;;;;;;-0.73;100.00;99374.88;4069645;29;26736;-80
2021/12/06 02:56:05;;;;;;;70.83;26.40;;;;;;;-0.74;100.00;99381.03;4066566;29;21735;-78
2021/12/06 03:01:18;;;;;;;67.23;25.63;;;;;;;-0.67;100.00;99391.00;4083450;29;20657;-78
2021/12/06 03:03:45;;;;;;;60.87;24.43;;;;;;;-0.74;100.00;99389.72;4092377;29;20245;-77
2021/12/06 03:06:14;;;;;;;64.13;24.53;;;;;;;-0.75;100.00;99387.19;4073342;29;20843;-78
2021/12/06 03:08:46;;;;;;;61.10;25.13;;;;;;;-0.86;100.00;99390.50;4063415;29;20237;-81
2021/12/06 03:11:26;;;;;;;60.03;24.07;;;;;;;-0.82;100.00;99383.31;4074390;29;21269;-77
2021/12/06 03:13:53;;;;;;;64.30;23.57;;;;;;;-0.90;100.00;99381.19;4067005;29;20433;-79
2021/12/06 03:16:20;;;;;;;60.57;23.07;;;;;;;-0.77;100.00;99378.59;4062602;29;20322;-78
2021/12/06 03:18:51;;;;;;;65.13;24.93;;;;;;;-0.77;100.00;99379.47;4078817;29;20395;-77
2021/12/06 03:21:19;;;;;;;56.77;23.20;;;;;;;-0.71;100.00;99383.44;4079177;29;20341;-79
2021/12/06 03:23:46;;;;;;;63.87;26.00;;;;;;;-0.75;100.00;99382.81;4074940;29;20366;-80
2021/12/06 03:26:13;;;;;;;57.07;23.17;;;;;;;-0.84;100.00;99378.19;4072422;29;23143;-78
2021/12/06 03:28:42;;;;;;;56.13;22.83;;;;;;;-0.90;100.00;99384.63;4073960;29;20674;-79
2021/12/06 03:31:09;;;;;;;55.80;22.60;;;;;;;-0.87;100.00;99381.84;4068794;29;20245;-77
2021/12/06 03:33:38;;;;;;;57.03;21.77;;;;;;;-0.94;100.00;99383.13;4085923;29;20242;-78
2021/12/06 03:36:06;;;;;;;52.23;20.70;;;;;;;-0.92;100.00;99385.66;4075137;29;21894;-78
2021/12/06 03:38:34;;;;;;;47.73;21.23;;;;;;;-0.92;100.00;99386.50;4077579;29;20244;-80
2021/12/06 03:41:01;;;;;;;53.77;22.17;;;;;;;-0.91;100.00;99387.38;4071259;29;20293;-80
2021/12/06 03:43:27;;;;;;;51.33;20.70;;;;;;;-0.88;100.00;99393.22;4082348;29;20248;-78
2021/12/06 03:45:54;;;;;;;53.50;21.83;;;;;;;-0.85;100.00;99387.78;4084554;29;22460;-78
2021/12/06 03:48:21;;;;;;;46.30;19.60;;;;;;;-0.91;100.00;99392.59;4084510;29;21526;-77
2021/12/06 03:50:48;;;;;;;51.27;20.30;;;;;;;-0.87;100.00;99394.03;4084341;29;20279;-78
2021/12/06 03:53:14;;;;;;;46.40;19.60;;;;;;;-0.96;100.00;99385.03;4072819;29;23188;-79
2021/12/06 03:55:41;;;;;;;48.30;18.63;;;;;;;-1.07;100.00;99396.16;4084377;29;20851;-78
2021/12/06 03:58:07;;;;;;;43.73;18.37;;;;;;;-1.04;100.00;99397.72;4084044;29;21275;-75
2021/12/06 04:00:34;;;;;;;46.87;19.23;;;;;;;-1.13;100.00;99398.31;4075255;29;20234;-77
2021/12/06 04:03:01;;;;;;;46.03;17.37;;;;;;;-1.06;100.00;99394.38;4088590;29;20249;-76
2021/12/06 04:05:28;;;;;;;43.07;17.43;;;;;;;-1.01;100.00;99407.97;4092776;29;20421;-77
2021/12/06 04:07:55;;;;;;;41.10;17.93;;;;;;;-1.04;100.00;99404.72;4086941;29;21226;-78
2021/12/06 04:10:25;;;;;;;44.90;18.07;;;;;;;-1.07;100.00;99406.59;4088344;29;20242;-76
2021/12/06 04:12:55;;;;;;;42.43;18.10;;;;;;;-1.01;100.00;99415.81;4091077;29;20345;-77
2021/12/06 04:15:22;;;;;;;42.00;17.37;;;;;;;-1.12;100.00;99407.84;4088259;29;21866;-74
2021/12/06 04:17:49;;;;;;;43.30;17.67;;;;;;;-1.17;100.00;99418.56;4086769;29;20501;-75
2021/12/06 04:20:16;;;;;;;41.03;17.87;;;;;;;-1.07;100.00;99424.03;4066808;29;21928;-75
2021/12/06 04:22:43;;;;;;;40.23;17.07;;;;;;;-1.03;100.00;99420.31;4084219;29;20426;-74
2021/12/06 04:25:12;;;;;;;38.73;17.80;;;;;;;-0.96;100.00;99426.81;4082431;29;21603;-75
2021/12/06 04:27:39;;;;;;;39.30;16.93;;;;;;;-0.96;100.00;99431.19;4091959;29;20234;-76
2021/12/06 04:30:07;;;;;;;38.37;17.70;;;;;;;-0.97;100.00;99434.75;4094747;29;21148;-75
2021/12/06 04:32:34;;;;;;;40.37;18.17;;;;;;;-0.89;100.00;99443.78;4077649;29;20244;-75
2021/12/06 04:35:00;;;;;;;42.03;17.90;;;;;;;-0.93;100.00;99444.91;4077228;29;21141;-75
2021/12/06 04:37:27;;;;;;;41.93;17.47;;;;;;;-1.04;100.00;99454.34;4086734;29;21819;-74
2021/12/06 04:39:53;;;;;;;48.27;18.10;;;;;;;-1.08;100.00;99454.53;4071001;29;20293;-75
2021/12/06 04:42:21;;;;;;;45.97;19.30;;;;;;;-1.09;100.00;99462.47;4077611;29;20771;-76
2021/12/06 04:44:48;;;;;;;44.53;17.90;;;;;;;-0.97;100.00;99466.91;4076859;29;20498;-77
2021/12/06 04:47:15;;;;;;;42.03;18.53;;;;;;;-1.01;100.00;99467.19;4086633;29;21506;-76
2021/12/06 04:49:41;;;;;;;47.67;19.20;;;;;;;-1.11;100.00;99464.31;4081098;29;20395;-76
2021/12/06 04:52:09;;;;;;;47.00;20.20;;;;;;;-1.08;100.00;99474.56;4071551;29;20876;-73
2021/12/06 04:54:39;;;;;;;50.97;20.50;;;;;;;-1.07;100.00;99476.25;4087287;29;21794;-75
2021/12/06 04:57:20;;;;;;;49.50;19.67;;;;;;;-1.11;100.00;99479.97;4071663;29;20348;-76
2021/12/06 04:59:56;;;;;;;49.90;19.57;;;;;;;-1.19;100.00;99484.84;4075293;29;20236;-76
2021/12/06 05:02:31;;;;;;;51.00;20.03;;;;;;;-1.13;100.00;99485.28;4076038;29;20276;-74
2021/12/06 05:05:02;;;;;;;47.37;18.77;;;;;;;-1.09;100.00;99489.41;4066009;29;20253;-74
2021/12/06 05:07:33;;;;;;;56.33;21.13;;;;;;;-1.13;100.00;99492.28;4081645;29;20361;-74
2021/12/06 05:10:00;;;;;;;55.83;22.07;;;;;;;-1.21;100.00;99497.97;4079052;29;20279;-76
2021/12/06 05:12:29;;;;;;;53.33;21.37;;;;;;;-1.12;100.00;99496.59;4074102;29;21196;-75
2021/12/06 05:14:57;;;;;;;57.17;21.80;;;;;;;-1.07;100.00;99494.53;4069604;29;20252;-75
2021/12/06 05:17:23;;;;;;;58.47;22.10;;;;;;;-0.98;100.00;99496.56;4074345;29;23977;-74
2021/12/06 05:19:50;;;;;;;51.80;21.10;;;;;;;-1.00;100.00;99500.22;4083287;29;20298;-73
2021/12/06 05:22:18;;;;;;;53.67;21.43;;;;;;;-1.04;100.00;99496.94;4079907;29;20242;-74
2021/12/06 05:24:45;;;;;;;51.73;21.37;;;;;;;-0.91;100.00;99491.81;4080887;29;20243;-73
2021/12/06 05:27:11;;;;;;;54.23;21.87;;;;;;;-0.95;100.00;99495.53;4067604;29;20393;-75
2021/12/06 05:29:38;;;;;;;57.13;22.37;;;;;;;-0.95;100.00;99488.53;4070522;29;20325;-74
2021/12/06 05:32:05;;;;;;;58.33;22.93;;;;;;;-1.06;100.00;99489.19;4084960;29;21105;-74
2021/12/06 05:34:38;;;;;;;58.47;21.83;;;;;;;-1.12;100.00;99479.16;4084089;29;20352;-75
2021/12/06 05:37:08;;;;;;;59.70;22.03;;;;;;;-1.10;100.00;99474.69;4072640;29;20246;-74
2021/12/06 05:39:35;;;;;;;51.80;21.47;;;;;;;-1.06;100.00;99472.69;4082713;29;23668;-74
2021/12/06 05:42:06;;;;;;;56.17;22.17;;;;;;;-1.10;100.00;99471.19;4078228;29;23068;-79
2021/12/06 05:44:33;;;;;;;54.60;21.80;;;;;;;-1.12;100.00;99473.94;4072405;29;25577;-74
2021/12/06 05:47:00;;;;;;;53.20;19.90;;;;;;;-1.19;100.00;99464.81;4086069;29;20256;-75
2021/12/06 05:49:27;;;;;;;64.47;21.40;;;;;;;-1.19;100.00;99461.34;4082740;29;20287;-75
2021/12/06 05:51:54;;;;;;;53.03;21.03;;;;;;;-1.13;100.00;99460.97;4102993;29;20234;-75
2021/12/06 05:54:21;;;;;;;46.97;19.00;;;;;;;-1.16;100.00;99453.31;4078845;29;23412;-76
2021/12/06 05:56:48;;;;;;;50.20;20.20;;;;;;;-1.17;100.00;99455.09;4084802;29;20662;-76
2021/12/06 05:59:15;;;;;;;53.03;20.20;;;;;;;-1.14;100.00;99456.69;4071947;29;22336;-75
2021/12/06 06:01:42;;;;;;;52.10;20.73;;;;;;;-1.09;100.00;99454.63;4084152;29;20252;-75
2021/12/06 06:04:09;;;;;;;46.03;20.17;;;;;;;-1.10;100.00;99453.78;4086728;29;22632;-74
2021/12/06 06:06:36;;;;;;;42.60;19.17;;;;;;;-1.14;100.00;99447.06;4071834;29;20707;-75
2021/12/06 06:09:05;;;;;;;46.27;19.63;;;;;;;-1.09;100.00;99460.69;4076396;29;20264;-76
2021/12/06 06:11:34;;;;;;;44.40;19.17;;;;;;;-1.15;100.00;99463.69;4076970;29;20245;-75
2021/12/06 06:14:02;;;;;;;45.03;18.33;;;;;;;-1.19;100.00;99463.97;4069115;29;23052;-75
2021/12/06 06:16:32;;;;;;;51.03;19.67;;;;;;;-1.19;100.00;99463.97;4076367;29;21220;-75
2021/12/06 06:18:59;;;;;;;53.10;20.60;;;;;;;-1.15;100.00;99470.66;4090175;29;20331;-75
2021/12/06 06:21:25;;;;;;;50.87;20.17;;;;;;;-1.10;100.00;99484.25;4093846;29;20334;-75
2021/12/06 06:23:52;;;;;;;50.83;20.17;;;;;;;-1.17;100.00;99478.59;4088296;29;20240;-74
2021/12/06 06:26:18;;;;;;;46.70;20.43;;;;;;;-1.15;100.00;99486.31;4082475;29;20310;-75
2021/12/06 06:28:45;;;;;;;50.50;20.13;;;;;;;-1.08;100.00;99490.22;4077619;29;20248;-75
2021/12/06 06:31:12;;;;;;;54.03;20.80;;;;;;;-1.03;100.00;99503.00;4070660;29;22966;-74
2021/12/06 06:33:38;;;;;;;47.30;20.23;;;;;;;-1.16;100.00;99522.03;4077935;29;21708;-74
2021/12/06 06:36:05;;;;;;;51.60;21.90;;;;;;;-0.98;100.00;99522.69;4096754;29;20627;-75
2021/12/06 06:38:31;;;;;;;49.93;20.67;;;;;;;-1.13;100.00;99536.66;4073488;29;20413;-77
2021/12/06 06:40:58;;;;;;;56.30;21.90;;;;;;;-1.17;100.00;99540.38;4088608;29;20238;-76
2021/12/06 06:43:25;;;;;;;55.83;21.83;;;;;;;-1.20;100.00;99548.41;4090724;29;20326;-75
2021/12/06 06:45:51;;;;;;;51.20;21.80;;;;;;;-1.19;100.00;99548.31;4074108;29;20435;-74
2021/12/06 06:48:18;;;;;;;57.07;23.20;;;;;;;-1.09;100.00;99566.88;4083954;29;21818;-74
2021/12/06 06:50:45;;;;;;;58.87;22.07;;;;;;;-1.12;100.00;99564.47;4084343;29;23460;-78
2021/12/06 06:53:11;;;;;;;52.20;21.73;;;;;;;-1.13;100.00;99565.38;4081643;29;22172;-75
2021/12/06 06:55:38;;;;;;;53.57;22.50;;;;;;;-1.03;100.00;99571.75;4080684;29;20248;-73
2021/12/06 06:58:05;;;;;;;58.60;23.53;;;;;;;-1.02;100.00;99578.63;4077781;29;21069;-74
2021/12/06 07:00:34;;;;;;;57.93;23.33;;;;;;;-1.02;100.00;99578.63;4071344;29;20237;-76
2021/12/06 07:03:02;;;;;;;56.70;23.37;;;;;;;-1.17;100.00;99585.63;4070589;29;20350;-75
2021/12/06 07:05:30;;;;;;;60.07;22.87;;;;;;;-1.25;100.00;99587.00;4074114;29;20269;-76
2021/12/06 07:07:57;;;;;;;57.10;22.67;;;;;;;-1.10;100.00;99575.63;4084441;29;20255;-78
2021/12/06 07:10:24;;;;;;;58.73;23.50;;;;;;;-1.18;100.00;99570.03;4080930;29;20399;-81
2021/12/06 07:12:52;;;;;;;64.13;24.10;;;;;;;-1.02;100.00;99570.81;4081487;29;20265;-80
2021/12/06 07:15:24;;;;;;;67.00;24.47;;;;;;;-0.97;100.00;99568.75;4073954;29;20249;-81
2021/12/06 07:17:52;;;;;;;71.13;24.67;;;;;;;-1.10;100.00;99553.00;4091741;29;23838;-78
2021/12/06 07:20:20;;;;;;;69.10;23.87;;;;;;;-1.08;100.00;99560.72;4086381;29;20232;-78
2021/12/06 07:22:48;;;;;;;64.93;23.57;;;;;;;-1.09;100.00;99556.44;4077132;29;20330;-79
2021/12/06 07:25:16;;;;;;;75.80;26.30;;;;;;;-1.05;100.00;99563.16;4076684;29;20271;-77
2021/12/06 07:27:43;;;;;;;68.80;24.90;;;;;;;-1.11;100.00;99569.56;4096489;29;23010;-78
2021/12/06 07:30:12;;;;;;;67.90;23.83;;;;;;;-1.09;100.00;99561.66;4092830;29;22660;-80
2021/12/06 07:32:39;;;;;;;68.30;25.43;;;;;;;-1.21;100.00;99555.41;4090416;29;20375;-79
2021/12/06 07:35:07;;;;;;;67.90;25.20;;;;;;;-1.21;100.00;99575.47;4083854;29;20332;-79
2021/12/06 07:37:35;;;;;;;77.23;25.33;;;;;;;-1.27;100.00;99580.09;4075590;29;20323;-77
2021/12/06 07:40:04;;;;;;;73.50;24.93;;;;;;;-1.14;100.00;99563.72;4078476;29;20376;-76
2021/12/06 07:42:31;;;;;;;73.27;26.83;;;;;;;-1.15;100.00;99556.78;4084406;29;20306;-79
2021/12/06 07:44:58;;;;;;;79.10;27.73;;;;;;;-1.33;100.00;99554.38;4074417;29;22113;-77
2021/12/06 07:47:24;;;;;;;74.40;25.63;;;;;;;-1.39;100.00;99559.09;4076144;29;20242;-78
2021/12/06 07:49:51;;;;;;;72.67;25.07;;;;;;;-1.46;100.00;99558.63;4081363;29;20455;-76
2021/12/06 07:52:26;;;;;;;73.07;26.23;;;;;;;-1.61;100.00;99568.19;4090075;29;20366;-76
2021/12/06 07:54:57;;;;;;;85.33;28.30;;;;;;;-1.51;100.00;99577.16;4085781;29;21832;-79
2021/12/06 07:57:25;;;;;;;80.27;25.87;;;;;;;-1.50;100.00;99578.00;4081088;29;23989;-76
2021/12/06 07:59:51;;;;;;;83.10;27.00;;;;;;;-1.56;100.00;99578.38;4064208;29;20342;-76
2021/12/06 08:02:18;;;;;;;78.83;28.07;;;;;;;-1.51;100.00;99581.53;4065754;29;20269;-76
2021/12/06 08:04:48;;;;;;;87.87;28.63;;;;;;;-1.52;100.00;99579.88;4066854;29;21783;-77
2021/12/06 08:07:15;;;;;;;91.83;30.10;;;;;;;-1.41;100.00;99585.28;4073819;29;21589;-79
2021/12/06 08:09:41;;;;;;;85.20;29.70;;;;;;;-1.34;100.00;99575.31;4089948;29;23450;-77
2021/12/06 08:12:08;;;;;;;91.30;31.63;;;;;;;-1.31;100.00;99573.38;4070462;29;20256;-80
2021/12/06 08:14:35;;;;;;;88.93;30.23;;;;;;;-1.41;100.00;99577.47;4082759;29;22836;-76
2021/12/06 08:17:01;;;;;;;98.83;31.87;;;;;;;-1.36;100.00;99582.41;4081740;29;21475;-80
2021/12/06 08:19:28;;;;;;;103.93;33.47;;;;;;;-1.40;100.00;99573.09;4089393;29;20251;-79
2021/12/06 08:21:55;;;;;;;101.33;31.27;;;;;;;-1.49;100.00;99584.91;4080690;29;22970;-77
2021/12/06 08:24:21;;;;;;;100.90;32.40;;;;;;;-1.60;100.00;99582.06;4077934;29;20996;-76
2021/12/06 08:26:48;;;;;;;101.63;33.00;;;;;;;-1.68;100.00;99592.13;4080045;29;20241;-77
2021/12/06 08:29:16;;;;;;;95.60;31.50;;;;;;;-1.62;100.00;99607.41;4084782;29;20303;-79
2021/12/06 08:31:47;;;;;;;101.63;32.50;;;;;;;-1.66;100.00;99603.28;4079508;29;20310;-76
2021/12/06 08:34:13;;;;;;;107.03;32.47;;;;;;;-1.63;100.00;99603.13;4083545;29;20434;-75
2021/12/06 08:36:42;;;;;;;106.27;33.43;;;;;;;-1.59;100.00;99605.47;4091868;29;20242;-77
2021/12/06 08:39:08;;;;;;;108.20;33.67;;;;;;;-1.61;100.00;99616.94;4086494;29;20238;-81
2021/12/06 08:41:35;;;;;;;109.23;34.47;;;;;;;-1.64;100.00;99620.56;4077143;29;23549;-76
2021/12/06 08:44:02;;;;;;;103.30;32.33;;;;;;;-1.61;100.00;99616.94;4094300;29;20241;-77
2021/12/06 08:46:33;;;;;;;101.03;33.50;;;;;;;-1.46;100.00;99620.41;4079616;29;20242;-76
2021/12/06 08:49:04;;;;;;;101.37;33.70;;;;;;;-1.42;100.00;99621.94;4070139;29;22878;-76
2021/12/06 08:51:36;;;;;;;104.50;32.37;;;;;;;-1.40;100.00;99620.91;4074776;29;20279;-77
2021/12/06 08:54:05;;;;;;;95.97;32.73;;;;;;;-1.45;100.00;99632.50;4085833;29;22862;-81
2021/12/06 08:56:33;;;;;;;99.23;31.53;;;;;;;-1.53;100.00;99633.81;4097712;29;22270;-79
2021/12/06 08:58:59;;;;;;;108.80;35.23;;;;;;;-1.60;100.00;99632.47;4073774;29;20248;-79
2021/12/06 09:01:26;;;;;;;106.03;34.60;;;;;;;-1.52;100.00;99647.72;4080900;29;20234;-77
2021/12/06 09:04:13;;;;;;;113.83;36.07;;;;;;;-1.49;100.00;99642.31;4063943;29;20338;-78
2021/12/06 09:06:43;;;;;;;116.47;36.27;;;;;;;-1.53;100.00;99635.56;4064905;29;20292;-78
2021/12/06 09:09:13;;;;;;;111.90;36.17;;;;;;;-1.63;100.00;99630.03;4078207;29;20304;-78
2021/12/06 09:11:41;;;;;;;126.60;39.37;;;;;;;-1.49;100.00;99642.31;4071463;29;21152;-78
2021/12/06 09:14:08;;;;;;;113.60;37.03;;;;;;;-1.45;100.00;99653.38;4077663;29;20309;-78
2021/12/06 09:16:37;;;;;;;114.47;35.70;;;;;;;-1.44;100.00;99648.09;4068574;29;20245;-82
2021/12/06 09:19:05;;;;;;;123.17;38.07;;;;;;;-1.45;100.00;99653.38;4072765;29;20854;-83
2021/12/06 09:21:36;;;;;;;112.47;35.97;;;;;;;-1.58;100.00;99651.50;4061865;29;20245;-80
2021/12/06 09:24:05;;;;;;;108.80;35.90;;;;;;;-1.57;100.00;99654.94;4081537;29;20298;-77
2021/12/06 09:26:32;;;;;;;107.50;35.30;;;;;;;-1.75;100.00;99657.66;4068964;29;21786;-79
2021/12/06 09:28:59;;;;;;;103.63;34.70;;;;;;;-1.72;100.00;99657.47;4059196;29;21802;-81
2021/12/06 09:31:26;;;;;;;102.83;33.33;;;;;;;-1.76;100.00;99655.97;4067404;29;20559;-81
2021/12/06 09:33:53;;;;;;;109.63;34.47;;;;;;;-1.66;100.00;99655.44;4071059;29;20604;-78
2021/12/06 09:36:21;;;;;;;102.87;32.63;;;;;;;-1.62;100.00;99649.13;4069567;29;20252;-83
2021/12/06 09:38:48;;;;;;;106.67;33.87;;;;;;;-1.56;100.00;99652.25;4083759;29;20253;-79
2021/12/06 09:41:22;;;;;;;99.80;32.67;;;;;;;-1.59;100.00;99654.19;4086702;29;20310;-79
2021/12/06 09:43:51;;;;;;;109.83;33.97;;;;;;;-1.60;100.00;99652.50;4092020;29;21764;-80
2021/12/06 09:46:18;;;;;;;95.53;32.70;;;;;;;-1.65;100.00;99652.78;4077086;29;20307;-81
2021/12/06 09:48:46;;;;;;;97.03;32.10;;;;;;;-1.79;100.00;99645.72;4097001;29;20248;-77
2021/12/06 09:51:21;;;;;;;89.87;32.30;;;;;;;-1.81;100.00;99638.91;4088255;29;20401;-78
2021/12/06 09:53:49;;;;;;;86.93;32.03;;;;;;;-1.75;100.00;99631.59;4085239;29;20239;-76
2021/12/06 09:56:26;;;;;;;103.13;32.90;;;;;;;-1.68;100.00;99636.47;4061675;29;21308;-80
2021/12/06 09:58:54;;;;;;;93.30;33.87;;;;;;;-1.67;100.00;99636.34;4075854;29;25420;-78
2021/12/06 10:01:29;;;;;;;97.13;34.10;;;;;;;-1.61;100.00;99638.63;4093479;29;20245;-77
2021/12/06 10:03:58;;;;;;;111.30;36.27;;;;;;;-1.59;100.00;99630.69;4091411;29;21278;-78
2021/12/06 10:06:27;;;;;;;93.43;34.63;;;;;;;-1.51;100.00;99633.72;4084195;29;20241;-81
2021/12/06 10:08:55;;;;;;;105.20;35.73;;;;;;;-1.51;100.00;99629.34;4089688;29;20229;-78
2021/12/06 10:11:25;;;;;;;99.27;35.07;;;;;;;-1.50;100.00;99631.03;4084413;29;22927;-76
2021/12/06 10:13:53;;;;;;;98.57;36.53;;;;;;;-1.41;100.00;99636.63;4096765;29;20748;-78
2021/12/06 10:16:20;;;;;;;105.30;36.47;;;;;;;-1.54;100.00;99641.72;4075832;29;20374;-76
2021/12/06 10:18:47;;;;;;;99.90;33.83;;;;;;;-1.51;100.00;99637.16;4072451;29;20250;-81
2021/12/06 10:21:16;;;;;;;89.53;33.07;;;;;;;-1.65;100.00;99641.50;4068528;29;20691;-80
2021/12/06 10:23:43;;;;;;;98.30;34.73;;;;;;;-1.55;100.00;99638.25;4079473;29;20250;-77
2021/12/06 10:26:15;;;;;;;98.03;34.27;;;;;;;-1.54;100.00;99634.75;4075780;29;22321;-79
2021/12/06 10:28:43;;;;;;;104.20;36.60;;;;;;;-1.53;100.00;99630.34;4084007;29;21066;-79
2021/12/06 10:31:13;;;;;;;95.23;34.33;;;;;;;-1.44;100.00;99631.59;4075386;29;20310;-78
2021/12/06 10:33:49;;;;;;;99.83;34.10;;;;;;;-1.41;100.00;99639.25;4067615;29;20288;-79
2021/12/06 10:36:17;;;;;;;100.43;35.53;;;;;;;-1.66;100.00;99639.81;4079863;29;21323;-80
2021/12/06 10:38:53;;;;;;;98.67;34.63;;;;;;;-1.65;100.00;99634.50;4078903;29;20286;-77
2021/12/06 10:41:25;;;;;;;100.63;33.93;;;;;;;-1.62;100.00;99646.53;4074931;29;20303;-83
2021/12/06 10:43:58;;;;;;;88.67;33.43;;;;;;;-1.82;100.00;99643.28;4078729;29;20241;-78
2021/12/06 10:46:26;;;;;;;92.50;33.13;;;;;;;-1.76;100.00;99650.75;4062951;29;20233;-77
2021/12/06 10:49:02;;;;;;;95.77;32.90;;;;;;;-1.72;100.00;99644.44;4076073;29;25684;-78
2021/12/06 10:51:33;;;;;;;98.30;35.07;;;;;;;-1.73;100.00;99655.81;4066136;29;22827;-81
2021/12/06 10:54:07;;;;;;;104.77;35.03;;;;;;;-1.78;100.00;99654.38;4085221;29;20238;-78
2021/12/06 10:56:43;;;;;;;87.90;33.10;;;;;;;-1.70;100.00;99644.38;4082669;29;20320;-78
2021/12/06 10:59:22;;;;;;;92.63;32.97;;;;;;;-1.74;100.00;99659.34;4082189;29;21275;-78
2021/12/06 11:01:51;;;;;;;96.70;32.67;;;;;;;-1.76;100.00;99660.34;4073633;29;23153;-76
2021/12/06 11:04:21;;;;;;;93.40;33.07;;;;;;;-1.76;100.00;99655.13;4061491;29;21291;-77
2021/12/06 11:06:50;;;;;;;98.07;33.37;;;;;;;-1.74;100.00;99658.50;4101376;29;23388;-77
2021/12/06 11:09:20;;;;;;;94.27;33.40;;;;;;;-1.97;100.00;99670.22;4080623;29;20327;-77
2021/12/06 11:11:50;;;;;;;88.77;32.37;;;;;;;-1.95;100.00;99661.38;4077734;29;20233;-76
2021/12/06 11:14:23;;;;;;;85.03;31.40;;;;;;;-1.98;100.00;99656.34;4072771;29;20273;-78
2021/12/06 11:16:55;;;;;;;93.90;32.50;;;;;;;-1.91;100.00;99649.03;4064841;29;22181;-77
2021/12/06 11:19:24;;;;;;;86.20;31.07;;;;;;;-1.75;100.00;99656.84;4069381;29;20243;-78
2021/12/06 11:22:00;;;;;;;89.03;32.17;;;;;;;-1.81;100.00;99649.34;4086391;29;20241;-78
2021/12/06 11:24:31;;;;;;;85.20;30.97;;;;;;;-1.93;100.00;99656.91;4068721;29;23628;-76
2021/12/06 11:27:13;;;;;;;78.23;28.73;;;;;;;-1.87;100.00;99647.94;4083880;29;20237;-77